sensor_id;sensor_type;location;lat;lon;timestamp;P1;durP1;ratioP1;P2;durP2;ratioP2
40793;SDS011;26502;51.886;15.604;2023-04-25T00:01:50;3.10;;;1.00;;
40793;SDS011;26502;51.886;15.604;2023-04-25T00:06:56;1.20;;;1.10;;
40793;SDS011;26502;51.886;15.604;2023-04-25T00:12:05;1.20;;;1.10;;
40793;SDS011;26502;51.886;15.604;2023-04-25T00:17:12;2.10;;;1.10;;
40793;SDS011;26502;51.886;15.604;2023-04-25T00:22:18;2.10;;;1.00;;
40793;SDS011;26502;51.886;15.604;2023-04-25T00:27:24;1.40;;;1.10;;
40793;SDS011;26502;51.886;15.604;2023-04-25T00:32:31;1.30;;;1.10;;
40793;SDS011;26502;51.886;15.604;2023-04-25T00:37:37;1.60;;;1.00;;
40793;SDS011;26502;51.886;15.604;2023-04-25T00:42:43;0.70;;;0.70;;
40793;SDS011;26502;51.886;15.604;2023-04-25T00:47:51;1.40;;;0.90;;
40793;SDS011;26502;51.886;15.604;2023-04-25T00:52:59;1.60;;;1.20;;
40793;SDS011;26502;51.886;15.604;2023-04-25T00:58:06;1.90;;;1.10;;
40793;SDS011;26502;51.886;15.604;2023-04-25T01:03:12;1.30;;;1.10;;
40793;SDS011;26502;51.886;15.604;2023-04-25T01:08:20;1.40;;;1.20;;
40793;SDS011;26502;51.886;15.604;2023-04-25T01:13:28;2.60;;;1.50;;
40793;SDS011;26502;51.886;15.604;2023-04-25T01:18:34;1.20;;;1.10;;
40793;SDS011;26502;51.886;15.604;2023-04-25T01:23:42;1.70;;;1.40;;
40793;SDS011;26502;51.886;15.604;2023-04-25T01:28:49;1.60;;;1.50;;
40793;SDS011;26502;51.886;15.604;2023-04-25T01:33:56;3.20;;;1.30;;
40793;SDS011;26502;51.886;15.604;2023-04-25T01:44:10;2.70;;;1.70;;
40793;SDS011;26502;51.886;15.604;2023-04-25T01:49:16;2.20;;;1.90;;
40793;SDS011;26502;51.886;15.604;2023-04-25T01:54:23;1.80;;;1.50;;
40793;SDS011;26502;51.886;15.604;2023-04-25T01:59:30;6.30;;;2.10;;
40793;SDS011;26502;51.886;15.604;2023-04-25T02:04:55;2.90;;;2.00;;
40793;SDS011;26502;51.886;15.604;2023-04-25T02:10:04;5.50;;;3.00;;
40793;SDS011;26502;51.886;15.604;2023-04-25T02:15:16;7.80;;;3.50;;
40793;SDS011;26502;51.886;15.604;2023-04-25T02:20:32;4.50;;;2.80;;
40793;SDS011;26502;51.886;15.604;2023-04-25T02:25:39;3.90;;;2.00;;
40793;SDS011;26502;51.886;15.604;2023-04-25T02:30:45;2.40;;;1.80;;
40793;SDS011;26502;51.886;15.604;2023-04-25T02:35:51;1.90;;;1.60;;
40793;SDS011;26502;51.886;15.604;2023-04-25T02:40:59;3.00;;;2.30;;
40793;SDS011;26502;51.886;15.604;2023-04-25T02:46:05;3.80;;;1.80;;
40793;SDS011;26502;51.886;15.604;2023-04-25T02:51:11;5.30;;;1.60;;
40793;SDS011;26502;51.886;15.604;2023-04-25T02:56:19;1.70;;;1.60;;
40793;SDS011;26502;51.886;15.604;2023-04-25T03:01:26;2.50;;;2.10;;
40793;SDS011;26502;51.886;15.604;2023-04-25T03:06:32;3.70;;;1.90;;
40793;SDS011;26502;51.886;15.604;2023-04-25T03:11:39;6.20;;;2.00;;
40793;SDS011;26502;51.886;15.604;2023-04-25T03:16:45;3.20;;;2.10;;
40793;SDS011;26502;51.886;15.604;2023-04-25T03:21:54;2.80;;;1.90;;
40793;SDS011;26502;51.886;15.604;2023-04-25T03:27:00;6.50;;;1.90;;
40793;SDS011;26502;51.886;15.604;2023-04-25T03:32:06;3.00;;;2.00;;
40793;SDS011;26502;51.886;15.604;2023-04-25T03:37:12;3.80;;;1.80;;
40793;SDS011;26502;51.886;15.604;2023-04-25T03:42:19;5.10;;;2.10;;
40793;SDS011;26502;51.886;15.604;2023-04-25T03:47:26;9.20;;;2.40;;
40793;SDS011;26502;51.886;15.604;2023-04-25T03:52:32;3.50;;;2.60;;
40793;SDS011;26502;51.886;15.604;2023-04-25T03:57:39;4.90;;;2.30;;
40793;SDS011;26502;51.886;15.604;2023-04-25T04:02:46;3.10;;;2.40;;
40793;SDS011;26502;51.886;15.604;2023-04-25T04:07:52;5.30;;;2.30;;
40793;SDS011;26502;51.886;15.604;2023-04-25T04:12:59;5.50;;;3.00;;
40793;SDS011;26502;51.886;15.604;2023-04-25T04:18:06;3.50;;;3.20;;
40793;SDS011;26502;51.886;15.604;2023-04-25T04:23:13;5.30;;;3.70;;
40793;SDS011;26502;51.886;15.604;2023-04-25T04:28:19;6.00;;;4.10;;
40793;SDS011;26502;51.886;15.604;2023-04-25T04:33:37;5.40;;;3.70;;
40793;SDS011;26502;51.886;15.604;2023-04-25T04:38:44;4.60;;;3.30;;
40793;SDS011;26502;51.886;15.604;2023-04-25T04:43:59;6.80;;;3.90;;
40793;SDS011;26502;51.886;15.604;2023-04-25T04:49:16;6.00;;;4.20;;
40793;SDS011;26502;51.886;15.604;2023-04-25T04:54:53;9.00;;;4.10;;
40793;SDS011;26502;51.886;15.604;2023-04-25T05:00:29;9.00;;;5.10;;
40793;SDS011;26502;51.886;15.604;2023-04-25T05:06:02;9.50;;;5.20;;
40793;SDS011;26502;51.886;15.604;2023-04-25T05:11:35;8.70;;;4.70;;
40793;SDS011;26502;51.886;15.604;2023-04-25T05:17:02;12.60;;;5.00;;
40793;SDS011;26502;51.886;15.604;2023-04-25T05:22:31;6.30;;;3.40;;
40793;SDS011;26502;51.886;15.604;2023-04-25T05:27:51;4.30;;;3.30;;
40793;SDS011;26502;51.886;15.604;2023-04-25T05:33:18;4.90;;;3.40;;
40793;SDS011;26502;51.886;15.604;2023-04-25T05:38:24;5.70;;;3.70;;
40793;SDS011;26502;51.886;15.604;2023-04-25T05:43:49;4.60;;;3.60;;
40793;SDS011;26502;51.886;15.604;2023-04-25T05:49:03;4.00;;;3.00;;
40793;SDS011;26502;51.886;15.604;2023-04-25T05:54:33;4.30;;;3.90;;
40793;SDS011;26502;51.886;15.604;2023-04-25T05:59:39;8.70;;;4.70;;
40793;SDS011;26502;51.886;15.604;2023-04-25T06:04:45;8.20;;;4.40;;
40793;SDS011;26502;51.886;15.604;2023-04-25T06:09:52;8.30;;;3.30;;
40793;SDS011;26502;51.886;15.604;2023-04-25T06:14:58;7.00;;;3.80;;
40793;SDS011;26502;51.886;15.604;2023-04-25T06:20:05;7.60;;;4.70;;
40793;SDS011;26502;51.886;15.604;2023-04-25T06:25:13;6.90;;;3.60;;
40793;SDS011;26502;51.886;15.604;2023-04-25T06:30:19;6.80;;;3.50;;
40793;SDS011;26502;51.886;15.604;2023-04-25T06:35:30;5.30;;;3.00;;
40793;SDS011;26502;51.886;15.604;2023-04-25T06:40:36;7.10;;;3.30;;
40793;SDS011;26502;51.886;15.604;2023-04-25T06:45:43;5.40;;;3.50;;
40793;SDS011;26502;51.886;15.604;2023-04-25T06:50:50;9.00;;;3.60;;
40793;SDS011;26502;51.886;15.604;2023-04-25T06:55:56;6.90;;;3.60;;
40793;SDS011;26502;51.886;15.604;2023-04-25T07:01:07;5.70;;;2.80;;
40793;SDS011;26502;51.886;15.604;2023-04-25T07:06:14;6.20;;;3.50;;
40793;SDS011;26502;51.886;15.604;2023-04-25T07:11:21;4.50;;;2.60;;
40793;SDS011;26502;51.886;15.604;2023-04-25T07:16:27;5.40;;;3.20;;
40793;SDS011;26502;51.886;15.604;2023-04-25T07:21:34;8.60;;;3.00;;
40793;SDS011;26502;51.886;15.604;2023-04-25T07:26:44;4.80;;;2.90;;
40793;SDS011;26502;51.886;15.604;2023-04-25T07:32:13;7.20;;;2.90;;
40793;SDS011;26502;51.886;15.604;2023-04-25T07:37:21;5.80;;;3.40;;
40793;SDS011;26502;51.886;15.604;2023-04-25T07:42:48;6.70;;;2.80;;
40793;SDS011;26502;51.886;15.604;2023-04-25T07:48:00;6.70;;;2.70;;
40793;SDS011;26502;51.886;15.604;2023-04-25T07:53:08;4.90;;;3.00;;
40793;SDS011;26502;51.886;15.604;2023-04-25T07:58:21;6.50;;;2.90;;
40793;SDS011;26502;51.886;15.604;2023-04-25T08:03:32;4.90;;;2.30;;
40793;SDS011;26502;51.886;15.604;2023-04-25T08:08:40;3.80;;;2.80;;
40793;SDS011;26502;51.886;15.604;2023-04-25T08:13:48;5.90;;;2.80;;
40793;SDS011;26502;51.886;15.604;2023-04-25T08:18:54;4.00;;;2.30;;
40793;SDS011;26502;51.886;15.604;2023-04-25T08:24:01;5.40;;;2.50;;
40793;SDS011;26502;51.886;15.604;2023-04-25T08:29:10;3.60;;;2.20;;
40793;SDS011;26502;51.886;15.604;2023-04-25T08:34:17;4.10;;;1.90;;
40793;SDS011;26502;51.886;15.604;2023-04-25T08:39:25;5.20;;;2.10;;
40793;SDS011;26502;51.886;15.604;2023-04-25T08:44:52;5.20;;;3.10;;
40793;SDS011;26502;51.886;15.604;2023-04-25T08:50:03;2.80;;;1.60;;
40793;SDS011;26502;51.886;15.604;2023-04-25T08:55:10;3.60;;;1.80;;
40793;SDS011;26502;51.886;15.604;2023-04-25T09:00:19;4.10;;;1.80;;
40793;SDS011;26502;51.886;15.604;2023-04-25T09:05:26;4.30;;;1.80;;
40793;SDS011;26502;51.886;15.604;2023-04-25T09:10:34;3.10;;;2.10;;
40793;SDS011;26502;51.886;15.604;2023-04-25T09:15:48;5.10;;;1.60;;
40793;SDS011;26502;51.886;15.604;2023-04-25T09:21:18;2.60;;;1.60;;
40793;SDS011;26502;51.886;15.604;2023-04-25T09:26:28;4.30;;;1.50;;
40793;SDS011;26502;51.886;15.604;2023-04-25T09:31:37;1.30;;;1.20;;
40793;SDS011;26502;51.886;15.604;2023-04-25T09:36:44;2.90;;;1.60;;
40793;SDS011;26502;51.886;15.604;2023-04-25T09:42:14;2.50;;;1.40;;
40793;SDS011;26502;51.886;15.604;2023-04-25T09:47:22;3.80;;;1.80;;
40793;SDS011;26502;51.886;15.604;2023-04-25T09:52:31;5.40;;;1.50;;
40793;SDS011;26502;51.886;15.604;2023-04-25T09:58:03;2.50;;;1.80;;
40793;SDS011;26502;51.886;15.604;2023-04-25T10:03:11;4.00;;;1.90;;
40793;SDS011;26502;51.886;15.604;2023-04-25T10:08:32;2.80;;;1.80;;
40793;SDS011;26502;51.886;15.604;2023-04-25T10:13:42;2.80;;;1.60;;
40793;SDS011;26502;51.886;15.604;2023-04-25T10:18:50;2.10;;;1.50;;
40793;SDS011;26502;51.886;15.604;2023-04-25T10:23:57;3.40;;;1.80;;
40793;SDS011;26502;51.886;15.604;2023-04-25T10:29:03;1.90;;;1.50;;
40793;SDS011;26502;51.886;15.604;2023-04-25T10:34:09;7.10;;;1.70;;
40793;SDS011;26502;51.886;15.604;2023-04-25T10:39:19;4.00;;;1.80;;
40793;SDS011;26502;51.886;15.604;2023-04-25T10:44:28;3.50;;;1.80;;
40793;SDS011;26502;51.886;15.604;2023-04-25T10:49:36;3.30;;;2.20;;
40793;SDS011;26502;51.886;15.604;2023-04-25T10:54:48;5.90;;;2.40;;
40793;SDS011;26502;51.886;15.604;2023-04-25T10:59:59;5.10;;;2.30;;
40793;SDS011;26502;51.886;15.604;2023-04-25T11:05:09;2.10;;;1.30;;
40793;SDS011;26502;51.886;15.604;2023-04-25T11:10:20;2.90;;;1.90;;
40793;SDS011;26502;51.886;15.604;2023-04-25T11:15:32;4.40;;;2.10;;
40793;SDS011;26502;51.886;15.604;2023-04-25T11:20:38;5.20;;;1.90;;
40793;SDS011;26502;51.886;15.604;2023-04-25T11:25:47;6.20;;;2.00;;
40793;SDS011;26502;51.886;15.604;2023-04-25T11:30:55;6.20;;;2.40;;
40793;SDS011;26502;51.886;15.604;2023-04-25T11:36:02;6.10;;;2.10;;
40793;SDS011;26502;51.886;15.604;2023-04-25T11:41:09;6.10;;;2.00;;
40793;SDS011;26502;51.886;15.604;2023-04-25T11:46:16;4.30;;;1.80;;
40793;SDS011;26502;51.886;15.604;2023-04-25T11:51:23;2.20;;;1.50;;
40793;SDS011;26502;51.886;15.604;2023-04-25T11:56:30;2.60;;;1.50;;
40793;SDS011;26502;51.886;15.604;2023-04-25T12:01:37;1.90;;;1.70;;
40793;SDS011;26502;51.886;15.604;2023-04-25T12:06:46;3.10;;;1.40;;
40793;SDS011;26502;51.886;15.604;2023-04-25T12:11:54;3.30;;;1.80;;
40793;SDS011;26502;51.886;15.604;2023-04-25T12:17:02;3.30;;;1.90;;
40793;SDS011;26502;51.886;15.604;2023-04-25T12:27:25;2.30;;;1.80;;
40793;SDS011;26502;51.886;15.604;2023-04-25T12:32:32;1.80;;;1.60;;
40793;SDS011;26502;51.886;15.604;2023-04-25T12:37:39;2.20;;;1.40;;
40793;SDS011;26502;51.886;15.604;2023-04-25T12:42:45;2.50;;;1.40;;
40793;SDS011;26502;51.886;15.604;2023-04-25T12:47:53;2.60;;;1.80;;
40793;SDS011;26502;51.886;15.604;2023-04-25T12:52:59;5.20;;;2.20;;
40793;SDS011;26502;51.886;15.604;2023-04-25T12:58:06;2.30;;;2.10;;
40793;SDS011;26502;51.886;15.604;2023-04-25T13:03:12;4.70;;;2.20;;
40793;SDS011;26502;51.886;15.604;2023-04-25T13:08:19;4.70;;;2.50;;
40793;SDS011;26502;51.886;15.604;2023-04-25T13:13:26;3.80;;;2.20;;
40793;SDS011;26502;51.886;15.604;2023-04-25T13:18:34;2.90;;;1.70;;
40793;SDS011;26502;51.886;15.604;2023-04-25T13:23:41;6.10;;;1.50;;
40793;SDS011;26502;51.886;15.604;2023-04-25T13:28:49;4.50;;;2.00;;
40793;SDS011;26502;51.886;15.604;2023-04-25T13:33:56;6.90;;;2.30;;
40793;SDS011;26502;51.886;15.604;2023-04-25T13:39:02;7.90;;;2.40;;
40793;SDS011;26502;51.886;15.604;2023-04-25T13:44:09;5.30;;;2.10;;
40793;SDS011;26502;51.886;15.604;2023-04-25T13:49:16;8.70;;;2.70;;
40793;SDS011;26502;51.886;15.604;2023-04-25T13:54:23;6.60;;;2.20;;
40793;SDS011;26502;51.886;15.604;2023-04-25T13:59:29;7.40;;;2.60;;
40793;SDS011;26502;51.886;15.604;2023-04-25T14:04:35;9.90;;;3.20;;
40793;SDS011;26502;51.886;15.604;2023-04-25T14:09:42;10.10;;;3.00;;
40793;SDS011;26502;51.886;15.604;2023-04-25T14:14:48;10.00;;;3.00;;
40793;SDS011;26502;51.886;15.604;2023-04-25T14:19:55;8.90;;;2.20;;
40793;SDS011;26502;51.886;15.604;2023-04-25T14:25:01;10.50;;;3.20;;
40793;SDS011;26502;51.886;15.604;2023-04-25T14:30:10;8.70;;;2.80;;
40793;SDS011;26502;51.886;15.604;2023-04-25T14:35:17;12.10;;;3.80;;
40793;SDS011;26502;51.886;15.604;2023-04-25T14:40:25;10.90;;;2.70;;
40793;SDS011;26502;51.886;15.604;2023-04-25T14:45:33;14.00;;;3.00;;
40793;SDS011;26502;51.886;15.604;2023-04-25T14:50:40;14.40;;;3.60;;
40793;SDS011;26502;51.886;15.604;2023-04-25T14:55:46;8.80;;;3.20;;
40793;SDS011;26502;51.886;15.604;2023-04-25T15:00:53;16.00;;;4.10;;
40793;SDS011;26502;51.886;15.604;2023-04-25T15:06:00;12.20;;;2.90;;
40793;SDS011;26502;51.886;15.604;2023-04-25T15:11:06;11.60;;;3.10;;
40793;SDS011;26502;51.886;15.604;2023-04-25T15:16:13;10.10;;;3.00;;
40793;SDS011;26502;51.886;15.604;2023-04-25T15:21:20;14.00;;;3.80;;
40793;SDS011;26502;51.886;15.604;2023-04-25T15:26:27;9.20;;;2.60;;
40793;SDS011;26502;51.886;15.604;2023-04-25T15:31:34;10.90;;;2.90;;
40793;SDS011;26502;51.886;15.604;2023-04-25T15:36:40;14.20;;;3.20;;
40793;SDS011;26502;51.886;15.604;2023-04-25T15:41:47;8.30;;;2.60;;
40793;SDS011;26502;51.886;15.604;2023-04-25T15:46:53;8.60;;;2.40;;
40793;SDS011;26502;51.886;15.604;2023-04-25T15:51:59;11.50;;;2.80;;
40793;SDS011;26502;51.886;15.604;2023-04-25T15:57:06;8.90;;;2.80;;
40793;SDS011;26502;51.886;15.604;2023-04-25T16:02:16;7.20;;;2.40;;
40793;SDS011;26502;51.886;15.604;2023-04-25T16:07:23;7.80;;;2.30;;
40793;SDS011;26502;51.886;15.604;2023-04-25T16:12:29;7.30;;;3.10;;
40793;SDS011;26502;51.886;15.604;2023-04-25T16:17:37;11.50;;;3.00;;
40793;SDS011;26502;51.886;15.604;2023-04-25T16:22:44;9.40;;;3.40;;
40793;SDS011;26502;51.886;15.604;2023-04-25T16:27:50;7.00;;;2.60;;
40793;SDS011;26502;51.886;15.604;2023-04-25T16:32:57;11.70;;;3.40;;
40793;SDS011;26502;51.886;15.604;2023-04-25T16:38:05;10.20;;;3.30;;
40793;SDS011;26502;51.886;15.604;2023-04-25T16:43:11;11.90;;;3.40;;
40793;SDS011;26502;51.886;15.604;2023-04-25T16:48:21;8.40;;;3.40;;
40793;SDS011;26502;51.886;15.604;2023-04-25T16:53:28;11.50;;;3.50;;
40793;SDS011;26502;51.886;15.604;2023-04-25T16:58:35;9.90;;;2.90;;
40793;SDS011;26502;51.886;15.604;2023-04-25T17:03:42;8.30;;;2.60;;
40793;SDS011;26502;51.886;15.604;2023-04-25T17:08:49;11.50;;;2.70;;
40793;SDS011;26502;51.886;15.604;2023-04-25T17:13:55;10.00;;;2.50;;
40793;SDS011;26502;51.886;15.604;2023-04-25T17:19:01;8.60;;;3.00;;
40793;SDS011;26502;51.886;15.604;2023-04-25T17:24:08;12.40;;;3.00;;
40793;SDS011;26502;51.886;15.604;2023-04-25T17:29:15;11.00;;;3.20;;
40793;SDS011;26502;51.886;15.604;2023-04-25T17:34:23;7.60;;;2.60;;
40793;SDS011;26502;51.886;15.604;2023-04-25T17:39:30;6.30;;;2.50;;
40793;SDS011;26502;51.886;15.604;2023-04-25T17:44:36;6.80;;;2.40;;
40793;SDS011;26502;51.886;15.604;2023-04-25T17:49:43;13.20;;;3.60;;
40793;SDS011;26502;51.886;15.604;2023-04-25T17:54:49;8.90;;;3.90;;
40793;SDS011;26502;51.886;15.604;2023-04-25T17:59:56;10.70;;;4.80;;
40793;SDS011;26502;51.886;15.604;2023-04-25T18:05:02;5.80;;;2.50;;
40793;SDS011;26502;51.886;15.604;2023-04-25T18:10:13;9.30;;;2.60;;
40793;SDS011;26502;51.886;15.604;2023-04-25T18:15:19;5.00;;;2.30;;
40793;SDS011;26502;51.886;15.604;2023-04-25T18:20:27;8.70;;;3.00;;
40793;SDS011;26502;51.886;15.604;2023-04-25T18:25:34;8.10;;;2.70;;
40793;SDS011;26502;51.886;15.604;2023-04-25T18:30:41;9.10;;;2.60;;
40793;SDS011;26502;51.886;15.604;2023-04-25T18:35:49;8.10;;;3.20;;
40793;SDS011;26502;51.886;15.604;2023-04-25T18:40:55;6.50;;;2.60;;
40793;SDS011;26502;51.886;15.604;2023-04-25T18:46:01;6.00;;;2.20;;
40793;SDS011;26502;51.886;15.604;2023-04-25T18:51:08;5.60;;;2.00;;
40793;SDS011;26502;51.886;15.604;2023-04-25T18:56:14;5.20;;;2.50;;
40793;SDS011;26502;51.886;15.604;2023-04-25T19:01:23;9.30;;;2.50;;
40793;SDS011;26502;51.886;15.604;2023-04-25T19:06:30;6.10;;;2.70;;
40793;SDS011;26502;51.886;15.604;2023-04-25T19:11:36;7.40;;;3.10;;
40793;SDS011;26502;51.886;15.604;2023-04-25T19:16:42;12.70;;;3.60;;
40793;SDS011;26502;51.886;15.604;2023-04-25T19:21:48;8.10;;;3.20;;
40793;SDS011;26502;51.886;15.604;2023-04-25T19:26:55;10.70;;;3.00;;
40793;SDS011;26502;51.886;15.604;2023-04-25T19:32:01;10.90;;;3.10;;
40793;SDS011;26502;51.886;15.604;2023-04-25T19:37:08;7.20;;;2.60;;
40793;SDS011;26502;51.886;15.604;2023-04-25T19:42:14;7.60;;;2.70;;
40793;SDS011;26502;51.886;15.604;2023-04-25T19:47:21;8.50;;;3.60;;
40793;SDS011;26502;51.886;15.604;2023-04-25T19:52:29;7.80;;;3.30;;
40793;SDS011;26502;51.886;15.604;2023-04-25T19:57:36;13.10;;;5.10;;
40793;SDS011;26502;51.886;15.604;2023-04-25T20:02:43;13.20;;;4.60;;
40793;SDS011;26502;51.886;15.604;2023-04-25T20:07:49;17.40;;;7.40;;
40793;SDS011;26502;51.886;15.604;2023-04-25T20:12:55;12.20;;;5.10;;
40793;SDS011;26502;51.886;15.604;2023-04-25T20:18:02;14.80;;;6.00;;
40793;SDS011;26502;51.886;15.604;2023-04-25T20:23:09;15.80;;;7.30;;
40793;SDS011;26502;51.886;15.604;2023-04-25T20:28:15;25.00;;;10.80;;
40793;SDS011;26502;51.886;15.604;2023-04-25T20:33:24;43.20;;;18.50;;
40793;SDS011;26502;51.886;15.604;2023-04-25T20:38:31;32.10;;;14.70;;
40793;SDS011;26502;51.886;15.604;2023-04-25T20:43:37;25.50;;;11.70;;
40793;SDS011;26502;51.886;15.604;2023-04-25T20:48:44;26.70;;;11.90;;
40793;SDS011;26502;51.886;15.604;2023-04-25T20:53:51;18.40;;;8.80;;
40793;SDS011;26502;51.886;15.604;2023-04-25T20:58:57;20.70;;;8.90;;
40793;SDS011;26502;51.886;15.604;2023-04-25T21:04:04;19.70;;;10.50;;
40793;SDS011;26502;51.886;15.604;2023-04-25T21:09:11;23.60;;;12.20;;
40793;SDS011;26502;51.886;15.604;2023-04-25T21:14:18;32.30;;;14.80;;
40793;SDS011;26502;51.886;15.604;2023-04-25T21:19:27;66.30;;;28.00;;
40793;SDS011;26502;51.886;15.604;2023-04-25T21:24:33;23.40;;;10.30;;
40793;SDS011;26502;51.886;15.604;2023-04-25T21:29:40;37.20;;;17.70;;
40793;SDS011;26502;51.886;15.604;2023-04-25T21:34:47;16.70;;;6.90;;
40793;SDS011;26502;51.886;15.604;2023-04-25T21:39:53;12.10;;;5.60;;
40793;SDS011;26502;51.886;15.604;2023-04-25T21:44:59;16.50;;;8.50;;
40793;SDS011;26502;51.886;15.604;2023-04-25T21:50:07;29.00;;;11.80;;
40793;SDS011;26502;51.886;15.604;2023-04-25T21:55:13;25.40;;;10.20;;
40793;SDS011;26502;51.886;15.604;2023-04-25T22:00:21;17.70;;;7.40;;
40793;SDS011;26502;51.886;15.604;2023-04-25T22:05:29;51.60;;;21.60;;
40793;SDS011;26502;51.886;15.604;2023-04-25T22:10:36;32.30;;;14.70;;
40793;SDS011;26502;51.886;15.604;2023-04-25T22:15:42;14.90;;;6.40;;
40793;SDS011;26502;51.886;15.604;2023-04-25T22:20:50;11.50;;;5.50;;
40793;SDS011;26502;51.886;15.604;2023-04-25T22:25:56;10.10;;;4.50;;
40793;SDS011;26502;51.886;15.604;2023-04-25T22:31:03;16.30;;;5.40;;
40793;SDS011;26502;51.886;15.604;2023-04-25T22:36:10;10.50;;;4.50;;
40793;SDS011;26502;51.886;15.604;2023-04-25T22:41:16;23.40;;;11.00;;
40793;SDS011;26502;51.886;15.604;2023-04-25T22:46:22;18.70;;;8.60;;
40793;SDS011;26502;51.886;15.604;2023-04-25T22:51:29;37.00;;;14.30;;
40793;SDS011;26502;51.886;15.604;2023-04-25T22:56:36;32.60;;;13.00;;
40793;SDS011;26502;51.886;15.604;2023-04-25T23:01:42;24.80;;;8.20;;
40793;SDS011;26502;51.886;15.604;2023-04-25T23:06:49;26.20;;;10.40;;
40793;SDS011;26502;51.886;15.604;2023-04-25T23:11:55;21.80;;;8.40;;
40793;SDS011;26502;51.886;15.604;2023-04-25T23:17:01;192.30;;;70.00;;
40793;SDS011;26502;51.886;15.604;2023-04-25T23:22:08;106.60;;;32.60;;
40793;SDS011;26502;51.886;15.604;2023-04-25T23:27:14;139.40;;;42.20;;
40793;SDS011;26502;51.886;15.604;2023-04-25T23:32:20;124.50;;;37.50;;
40793;SDS011;26502;51.886;15.604;2023-04-25T23:37:28;111.20;;;32.90;;
40793;SDS011;26502;51.886;15.604;2023-04-25T23:42:36;47.00;;;16.90;;
40793;SDS011;26502;51.886;15.604;2023-04-25T23:47:43;54.80;;;19.30;;
40793;SDS011;26502;51.886;15.604;2023-04-25T23:52:49;37.90;;;14.30;;
40793;SDS011;26502;51.886;15.604;2023-04-25T23:57:55;59.20;;;23.10;;
